sensor_id;sensor_type;location;lat;lon;timestamp;P1;durP1;ratioP1;P2;durP2;ratioP2
76850;SDS011;65824;43.726;20.692;2023-12-20T00:01:21;175.82;;;85.80;;
76850;SDS011;65824;43.726;20.692;2023-12-20T00:03:47;179.45;;;84.60;;
76850;SDS011;65824;43.726;20.692;2023-12-20T00:06:13;180.45;;;84.07;;
76850;SDS011;65824;43.726;20.692;2023-12-20T00:08:39;184.70;;;87.03;;
76850;SDS011;65824;43.726;20.692;2023-12-20T00:11:04;177.30;;;85.80;;
76850;SDS011;65824;43.726;20.692;2023-12-20T00:13:30;126.57;;;57.92;;
76850;SDS011;65824;43.726;20.692;2023-12-20T00:15:56;117.60;;;57.10;;
76850;SDS011;65824;43.726;20.692;2023-12-20T00:18:21;106.57;;;52.88;;
76850;SDS011;65824;43.726;20.692;2023-12-20T00:20:47;122.25;;;57.53;;
76850;SDS011;65824;43.726;20.692;2023-12-20T00:23:13;118.95;;;56.42;;
76850;SDS011;65824;43.726;20.692;2023-12-20T00:25:38;126.03;;;58.80;;
76850;SDS011;65824;43.726;20.692;2023-12-20T00:28:04;128.25;;;56.00;;
76850;SDS011;65824;43.726;20.692;2023-12-20T00:30:29;116.40;;;55.22;;
76850;SDS011;65824;43.726;20.692;2023-12-20T00:32:55;120.82;;;56.35;;
76850;SDS011;65824;43.726;20.692;2023-12-20T00:35:21;116.75;;;55.50;;
76850;SDS011;65824;43.726;20.692;2023-12-20T00:37:47;114.35;;;53.47;;
76850;SDS011;65824;43.726;20.692;2023-12-20T00:40:12;119.55;;;54.95;;
76850;SDS011;65824;43.726;20.692;2023-12-20T00:42:39;112.47;;;53.60;;
76850;SDS011;65824;43.726;20.692;2023-12-20T00:45:05;107.82;;;52.88;;
76850;SDS011;65824;43.726;20.692;2023-12-20T00:47:31;108.85;;;54.47;;
76850;SDS011;65824;43.726;20.692;2023-12-20T00:49:56;100.72;;;51.45;;
76850;SDS011;65824;43.726;20.692;2023-12-20T00:52:23;103.47;;;52.20;;
76850;SDS011;65824;43.726;20.692;2023-12-20T00:54:50;108.95;;;53.28;;
76850;SDS011;65824;43.726;20.692;2023-12-20T00:57:16;105.85;;;52.42;;
76850;SDS011;65824;43.726;20.692;2023-12-20T00:59:41;110.95;;;54.13;;
76850;SDS011;65824;43.726;20.692;2023-12-20T01:02:06;105.78;;;52.88;;
76850;SDS011;65824;43.726;20.692;2023-12-20T01:04:32;115.40;;;55.83;;
76850;SDS011;65824;43.726;20.692;2023-12-20T01:06:58;127.65;;;62.63;;
76850;SDS011;65824;43.726;20.692;2023-12-20T01:09:23;134.68;;;62.63;;
76850;SDS011;65824;43.726;20.692;2023-12-20T01:11:51;151.93;;;66.10;;
76850;SDS011;65824;43.726;20.692;2023-12-20T01:14:17;138.48;;;66.20;;
76850;SDS011;65824;43.726;20.692;2023-12-20T01:16:42;143.05;;;65.93;;
76850;SDS011;65824;43.726;20.692;2023-12-20T01:19:08;125.20;;;55.35;;
76850;SDS011;65824;43.726;20.692;2023-12-20T01:21:33;113.13;;;51.53;;
76850;SDS011;65824;43.726;20.692;2023-12-20T01:23:59;99.63;;;47.22;;
76850;SDS011;65824;43.726;20.692;2023-12-20T01:26:24;84.97;;;44.45;;
76850;SDS011;65824;43.726;20.692;2023-12-20T01:28:50;84.22;;;42.38;;
76850;SDS011;65824;43.726;20.692;2023-12-20T01:31:15;81.65;;;41.60;;
76850;SDS011;65824;43.726;20.692;2023-12-20T01:33:40;76.88;;;38.47;;
76850;SDS011;65824;43.726;20.692;2023-12-20T01:36:06;81.97;;;39.67;;
76850;SDS011;65824;43.726;20.692;2023-12-20T01:38:31;75.75;;;39.42;;
76850;SDS011;65824;43.726;20.692;2023-12-20T01:40:57;70.97;;;37.60;;
76850;SDS011;65824;43.726;20.692;2023-12-20T01:43:23;70.70;;;37.95;;
76850;SDS011;65824;43.726;20.692;2023-12-20T01:45:48;84.82;;;41.22;;
76850;SDS011;65824;43.726;20.692;2023-12-20T01:48:14;90.30;;;44.80;;
76850;SDS011;65824;43.726;20.692;2023-12-20T01:50:40;84.57;;;43.17;;
76850;SDS011;65824;43.726;20.692;2023-12-20T01:53:05;89.57;;;43.83;;
76850;SDS011;65824;43.726;20.692;2023-12-20T01:55:33;92.60;;;45.13;;
76850;SDS011;65824;43.726;20.692;2023-12-20T01:58:00;85.95;;;43.67;;
76850;SDS011;65824;43.726;20.692;2023-12-20T02:00:26;87.90;;;42.63;;
76850;SDS011;65824;43.726;20.692;2023-12-20T02:02:53;97.90;;;47.20;;
76850;SDS011;65824;43.726;20.692;2023-12-20T02:05:22;105.53;;;50.35;;
76850;SDS011;65824;43.726;20.692;2023-12-20T02:07:49;98.30;;;48.63;;
76850;SDS011;65824;43.726;20.692;2023-12-20T02:10:15;107.15;;;50.50;;
76850;SDS011;65824;43.726;20.692;2023-12-20T02:12:40;104.68;;;48.85;;
76850;SDS011;65824;43.726;20.692;2023-12-20T02:15:07;104.35;;;51.13;;
76850;SDS011;65824;43.726;20.692;2023-12-20T02:17:35;98.82;;;47.20;;
76850;SDS011;65824;43.726;20.692;2023-12-20T02:20:01;93.60;;;44.63;;
76850;SDS011;65824;43.726;20.692;2023-12-20T02:22:27;95.15;;;45.85;;
76850;SDS011;65824;43.726;20.692;2023-12-20T02:24:53;86.95;;;41.55;;
76850;SDS011;65824;43.726;20.692;2023-12-20T02:27:18;79.95;;;39.70;;
76850;SDS011;65824;43.726;20.692;2023-12-20T02:29:44;77.35;;;40.75;;
76850;SDS011;65824;43.726;20.692;2023-12-20T02:32:12;76.57;;;41.17;;
76850;SDS011;65824;43.726;20.692;2023-12-20T02:34:37;73.82;;;40.70;;
76850;SDS011;65824;43.726;20.692;2023-12-20T02:37:03;78.13;;;39.95;;
76850;SDS011;65824;43.726;20.692;2023-12-20T02:39:28;82.93;;;41.67;;
76850;SDS011;65824;43.726;20.692;2023-12-20T02:41:54;80.03;;;41.10;;
76850;SDS011;65824;43.726;20.692;2023-12-20T02:44:20;79.03;;;38.42;;
76850;SDS011;65824;43.726;20.692;2023-12-20T02:46:45;79.60;;;41.17;;
76850;SDS011;65824;43.726;20.692;2023-12-20T02:49:11;85.63;;;40.05;;
76850;SDS011;65824;43.726;20.692;2023-12-20T02:51:36;81.97;;;42.63;;
76850;SDS011;65824;43.726;20.692;2023-12-20T02:54:03;73.78;;;39.10;;
76850;SDS011;65824;43.726;20.692;2023-12-20T02:56:29;74.40;;;38.67;;
76850;SDS011;65824;43.726;20.692;2023-12-20T02:58:54;74.75;;;38.03;;
76850;SDS011;65824;43.726;20.692;2023-12-20T03:01:20;70.65;;;38.88;;
76850;SDS011;65824;43.726;20.692;2023-12-20T03:03:45;77.95;;;40.80;;
76850;SDS011;65824;43.726;20.692;2023-12-20T03:06:11;72.82;;;39.25;;
76850;SDS011;65824;43.726;20.692;2023-12-20T03:08:36;77.30;;;40.28;;
76850;SDS011;65824;43.726;20.692;2023-12-20T03:11:02;79.07;;;39.67;;
76850;SDS011;65824;43.726;20.692;2023-12-20T03:13:27;91.75;;;41.58;;
76850;SDS011;65824;43.726;20.692;2023-12-20T03:15:53;87.97;;;42.40;;
76850;SDS011;65824;43.726;20.692;2023-12-20T03:18:19;82.03;;;39.45;;
76850;SDS011;65824;43.726;20.692;2023-12-20T03:20:45;90.82;;;44.67;;
76850;SDS011;65824;43.726;20.692;2023-12-20T03:23:12;103.15;;;49.22;;
76850;SDS011;65824;43.726;20.692;2023-12-20T03:25:38;108.55;;;51.95;;
76850;SDS011;65824;43.726;20.692;2023-12-20T03:28:03;111.55;;;49.42;;
76850;SDS011;65824;43.726;20.692;2023-12-20T03:30:29;123.22;;;50.83;;
76850;SDS011;65824;43.726;20.692;2023-12-20T03:32:54;106.55;;;49.65;;
76850;SDS011;65824;43.726;20.692;2023-12-20T03:35:21;107.43;;;46.30;;
76850;SDS011;65824;43.726;20.692;2023-12-20T03:37:47;94.55;;;41.92;;
76850;SDS011;65824;43.726;20.692;2023-12-20T03:40:13;87.47;;;43.20;;
76850;SDS011;65824;43.726;20.692;2023-12-20T03:42:39;95.05;;;43.45;;
76850;SDS011;65824;43.726;20.692;2023-12-20T03:45:05;87.57;;;42.03;;
76850;SDS011;65824;43.726;20.692;2023-12-20T03:47:30;82.80;;;41.75;;
76850;SDS011;65824;43.726;20.692;2023-12-20T03:49:56;88.25;;;42.15;;
76850;SDS011;65824;43.726;20.692;2023-12-20T03:52:21;85.38;;;40.20;;
76850;SDS011;65824;43.726;20.692;2023-12-20T03:54:47;81.38;;;38.67;;
76850;SDS011;65824;43.726;20.692;2023-12-20T03:57:13;80.32;;;37.83;;
76850;SDS011;65824;43.726;20.692;2023-12-20T03:59:38;83.82;;;41.05;;
76850;SDS011;65824;43.726;20.692;2023-12-20T04:02:04;85.03;;;39.92;;
76850;SDS011;65824;43.726;20.692;2023-12-20T04:04:29;82.38;;;40.70;;
76850;SDS011;65824;43.726;20.692;2023-12-20T04:06:55;81.97;;;40.75;;
76850;SDS011;65824;43.726;20.692;2023-12-20T04:09:20;89.60;;;41.47;;
76850;SDS011;65824;43.726;20.692;2023-12-20T04:11:46;78.07;;;39.58;;
76850;SDS011;65824;43.726;20.692;2023-12-20T04:14:11;77.30;;;39.45;;
76850;SDS011;65824;43.726;20.692;2023-12-20T04:16:37;80.82;;;40.08;;
76850;SDS011;65824;43.726;20.692;2023-12-20T04:19:04;92.00;;;42.05;;
76850;SDS011;65824;43.726;20.692;2023-12-20T04:21:29;89.47;;;43.35;;
76850;SDS011;65824;43.726;20.692;2023-12-20T04:23:54;87.10;;;42.80;;
76850;SDS011;65824;43.726;20.692;2023-12-20T04:26:20;89.65;;;41.15;;
76850;SDS011;65824;43.726;20.692;2023-12-20T04:28:45;85.07;;;42.53;;
76850;SDS011;65824;43.726;20.692;2023-12-20T04:31:11;92.00;;;44.45;;
76850;SDS011;65824;43.726;20.692;2023-12-20T04:33:37;88.82;;;46.42;;
76850;SDS011;65824;43.726;20.692;2023-12-20T04:36:04;97.07;;;46.15;;
76850;SDS011;65824;43.726;20.692;2023-12-20T04:38:29;95.60;;;48.25;;
76850;SDS011;65824;43.726;20.692;2023-12-20T04:40:55;95.60;;;47.47;;
76850;SDS011;65824;43.726;20.692;2023-12-20T04:43:20;106.63;;;48.10;;
76850;SDS011;65824;43.726;20.692;2023-12-20T04:45:46;92.30;;;47.58;;
76850;SDS011;65824;43.726;20.692;2023-12-20T04:48:11;99.55;;;47.65;;
76850;SDS011;65824;43.726;20.692;2023-12-20T04:50:37;109.88;;;48.10;;
76850;SDS011;65824;43.726;20.692;2023-12-20T04:53:03;102.65;;;45.60;;
76850;SDS011;65824;43.726;20.692;2023-12-20T04:55:28;104.75;;;46.75;;
76850;SDS011;65824;43.726;20.692;2023-12-20T04:57:54;100.63;;;46.83;;
76850;SDS011;65824;43.726;20.692;2023-12-20T05:00:20;102.40;;;48.22;;
76850;SDS011;65824;43.726;20.692;2023-12-20T05:02:45;104.20;;;48.05;;
76850;SDS011;65824;43.726;20.692;2023-12-20T05:05:11;102.25;;;48.50;;
76850;SDS011;65824;43.726;20.692;2023-12-20T05:07:36;96.00;;;47.05;;
76850;SDS011;65824;43.726;20.692;2023-12-20T05:10:02;97.35;;;47.72;;
76850;SDS011;65824;43.726;20.692;2023-12-20T05:12:29;90.75;;;46.05;;
76850;SDS011;65824;43.726;20.692;2023-12-20T05:14:55;87.97;;;44.22;;
76850;SDS011;65824;43.726;20.692;2023-12-20T05:17:21;92.13;;;46.50;;
76850;SDS011;65824;43.726;20.692;2023-12-20T05:19:46;88.65;;;43.85;;
76850;SDS011;65824;43.726;20.692;2023-12-20T05:22:11;93.00;;;43.75;;
76850;SDS011;65824;43.726;20.692;2023-12-20T05:24:37;85.72;;;44.65;;
76850;SDS011;65824;43.726;20.692;2023-12-20T05:27:03;89.60;;;44.90;;
76850;SDS011;65824;43.726;20.692;2023-12-20T05:29:29;84.30;;;44.13;;
76850;SDS011;65824;43.726;20.692;2023-12-20T05:31:57;89.72;;;41.70;;
76850;SDS011;65824;43.726;20.692;2023-12-20T05:34:23;84.32;;;41.92;;
76850;SDS011;65824;43.726;20.692;2023-12-20T05:36:49;82.13;;;41.83;;
76850;SDS011;65824;43.726;20.692;2023-12-20T05:39:14;77.72;;;40.55;;
76850;SDS011;65824;43.726;20.692;2023-12-20T05:41:41;75.45;;;40.75;;
76850;SDS011;65824;43.726;20.692;2023-12-20T05:44:06;78.07;;;42.35;;
76850;SDS011;65824;43.726;20.692;2023-12-20T05:46:33;83.82;;;42.60;;
76850;SDS011;65824;43.726;20.692;2023-12-20T05:48:59;81.13;;;43.78;;
76850;SDS011;65824;43.726;20.692;2023-12-20T05:51:24;99.00;;;48.47;;
76850;SDS011;65824;43.726;20.692;2023-12-20T05:53:49;97.75;;;48.20;;
76850;SDS011;65824;43.726;20.692;2023-12-20T05:56:16;87.15;;;45.42;;
76850;SDS011;65824;43.726;20.692;2023-12-20T05:58:44;104.97;;;54.38;;
76850;SDS011;65824;43.726;20.692;2023-12-20T06:01:10;104.50;;;53.53;;
76850;SDS011;65824;43.726;20.692;2023-12-20T06:03:37;105.05;;;52.20;;
76850;SDS011;65824;43.726;20.692;2023-12-20T06:06:06;108.45;;;52.92;;
76850;SDS011;65824;43.726;20.692;2023-12-20T06:08:32;117.65;;;54.45;;
76850;SDS011;65824;43.726;20.692;2023-12-20T06:10:57;119.63;;;56.45;;
76850;SDS011;65824;43.726;20.692;2023-12-20T06:13:24;136.95;;;61.53;;
76850;SDS011;65824;43.726;20.692;2023-12-20T06:15:50;136.18;;;61.35;;
76850;SDS011;65824;43.726;20.692;2023-12-20T06:18:17;133.70;;;60.80;;
76850;SDS011;65824;43.726;20.692;2023-12-20T06:20:42;120.95;;;57.03;;
76850;SDS011;65824;43.726;20.692;2023-12-20T06:23:08;117.78;;;55.90;;
76850;SDS011;65824;43.726;20.692;2023-12-20T06:25:35;119.03;;;56.03;;
76850;SDS011;65824;43.726;20.692;2023-12-20T06:28:01;113.25;;;53.97;;
76850;SDS011;65824;43.726;20.692;2023-12-20T06:30:26;115.28;;;54.45;;
76850;SDS011;65824;43.726;20.692;2023-12-20T06:32:52;110.65;;;54.25;;
76850;SDS011;65824;43.726;20.692;2023-12-20T06:35:18;110.88;;;55.05;;
76850;SDS011;65824;43.726;20.692;2023-12-20T06:37:44;113.75;;;56.03;;
76850;SDS011;65824;43.726;20.692;2023-12-20T06:40:10;120.30;;;57.22;;
76850;SDS011;65824;43.726;20.692;2023-12-20T06:42:35;128.80;;;62.88;;
76850;SDS011;65824;43.726;20.692;2023-12-20T06:45:01;111.55;;;55.45;;
76850;SDS011;65824;43.726;20.692;2023-12-20T06:47:27;89.47;;;44.25;;
76850;SDS011;65824;43.726;20.692;2023-12-20T06:49:52;87.35;;;45.88;;
76850;SDS011;65824;43.726;20.692;2023-12-20T06:52:18;78.32;;;42.70;;
76850;SDS011;65824;43.726;20.692;2023-12-20T06:54:44;82.88;;;44.95;;
76850;SDS011;65824;43.726;20.692;2023-12-20T06:57:10;84.22;;;44.42;;
76850;SDS011;65824;43.726;20.692;2023-12-20T06:59:40;97.28;;;48.05;;
76850;SDS011;65824;43.726;20.692;2023-12-20T07:02:06;93.05;;;48.22;;
76850;SDS011;65824;43.726;20.692;2023-12-20T07:04:31;96.45;;;50.85;;
76850;SDS011;65824;43.726;20.692;2023-12-20T07:06:57;99.72;;;51.80;;
76850;SDS011;65824;43.726;20.692;2023-12-20T07:09:25;93.60;;;49.15;;
76850;SDS011;65824;43.726;20.692;2023-12-20T07:11:51;111.43;;;53.90;;
76850;SDS011;65824;43.726;20.692;2023-12-20T07:14:19;103.88;;;54.47;;
76850;SDS011;65824;43.726;20.692;2023-12-20T07:16:44;104.55;;;52.70;;
76850;SDS011;65824;43.726;20.692;2023-12-20T07:19:09;105.75;;;49.42;;
76850;SDS011;65824;43.726;20.692;2023-12-20T07:21:35;98.68;;;48.30;;
76850;SDS011;65824;43.726;20.692;2023-12-20T07:24:03;106.18;;;52.72;;
76850;SDS011;65824;43.726;20.692;2023-12-20T07:26:28;108.40;;;52.47;;
76850;SDS011;65824;43.726;20.692;2023-12-20T07:28:54;109.97;;;55.78;;
76850;SDS011;65824;43.726;20.692;2023-12-20T07:31:19;111.18;;;55.35;;
76850;SDS011;65824;43.726;20.692;2023-12-20T07:33:45;107.18;;;56.30;;
76850;SDS011;65824;43.726;20.692;2023-12-20T07:36:11;113.53;;;55.42;;
76850;SDS011;65824;43.726;20.692;2023-12-20T07:38:37;105.88;;;54.00;;
76850;SDS011;65824;43.726;20.692;2023-12-20T07:41:02;110.57;;;53.38;;
76850;SDS011;65824;43.726;20.692;2023-12-20T07:43:28;98.30;;;51.17;;
76850;SDS011;65824;43.726;20.692;2023-12-20T07:45:54;98.25;;;49.40;;
76850;SDS011;65824;43.726;20.692;2023-12-20T07:48:19;99.80;;;48.90;;
76850;SDS011;65824;43.726;20.692;2023-12-20T07:50:45;91.22;;;48.08;;
76850;SDS011;65824;43.726;20.692;2023-12-20T07:53:10;104.72;;;50.80;;
76850;SDS011;65824;43.726;20.692;2023-12-20T07:55:36;96.75;;;49.22;;
76850;SDS011;65824;43.726;20.692;2023-12-20T07:58:02;97.10;;;50.58;;
76850;SDS011;65824;43.726;20.692;2023-12-20T08:00:27;106.57;;;49.60;;
76850;SDS011;65824;43.726;20.692;2023-12-20T08:02:53;101.60;;;50.20;;
76850;SDS011;65824;43.726;20.692;2023-12-20T08:05:18;102.97;;;51.88;;
76850;SDS011;65824;43.726;20.692;2023-12-20T08:07:43;88.97;;;46.22;;
76850;SDS011;65824;43.726;20.692;2023-12-20T08:10:10;134.68;;;64.57;;
76850;SDS011;65824;43.726;20.692;2023-12-20T08:12:35;177.45;;;89.78;;
76850;SDS011;65824;43.726;20.692;2023-12-20T08:15:01;209.77;;;109.30;;
76850;SDS011;65824;43.726;20.692;2023-12-20T08:17:27;226.93;;;114.80;;
76850;SDS011;65824;43.726;20.692;2023-12-20T08:19:52;229.93;;;116.30;;
76850;SDS011;65824;43.726;20.692;2023-12-20T08:22:18;233.35;;;118.72;;
76850;SDS011;65824;43.726;20.692;2023-12-20T08:24:43;237.00;;;118.15;;
76850;SDS011;65824;43.726;20.692;2023-12-20T08:27:10;238.48;;;122.90;;
76850;SDS011;65824;43.726;20.692;2023-12-20T08:29:35;255.10;;;125.90;;
76850;SDS011;65824;43.726;20.692;2023-12-20T08:32:01;242.35;;;117.65;;
76850;SDS011;65824;43.726;20.692;2023-12-20T08:34:28;237.43;;;118.05;;
76850;SDS011;65824;43.726;20.692;2023-12-20T08:36:53;226.73;;;117.75;;
76850;SDS011;65824;43.726;20.692;2023-12-20T08:39:19;228.50;;;119.72;;
76850;SDS011;65824;43.726;20.692;2023-12-20T08:41:44;234.93;;;119.82;;
76850;SDS011;65824;43.726;20.692;2023-12-20T08:44:10;216.00;;;114.82;;
76850;SDS011;65824;43.726;20.692;2023-12-20T08:46:35;216.55;;;111.75;;
76850;SDS011;65824;43.726;20.692;2023-12-20T08:49:01;206.65;;;108.18;;
76850;SDS011;65824;43.726;20.692;2023-12-20T08:51:27;201.55;;;107.57;;
76850;SDS011;65824;43.726;20.692;2023-12-20T08:53:53;199.82;;;105.00;;
76850;SDS011;65824;43.726;20.692;2023-12-20T08:56:18;203.95;;;107.65;;
76850;SDS011;65824;43.726;20.692;2023-12-20T08:58:45;222.45;;;109.30;;
76850;SDS011;65824;43.726;20.692;2023-12-20T09:01:12;198.80;;;105.35;;
76850;SDS011;65824;43.726;20.692;2023-12-20T09:03:38;206.27;;;109.18;;
76850;SDS011;65824;43.726;20.692;2023-12-20T09:06:04;198.85;;;105.68;;
76850;SDS011;65824;43.726;20.692;2023-12-20T09:08:30;192.45;;;101.57;;
76850;SDS011;65824;43.726;20.692;2023-12-20T09:10:56;195.45;;;101.30;;
76850;SDS011;65824;43.726;20.692;2023-12-20T09:13:22;189.38;;;97.20;;
76850;SDS011;65824;43.726;20.692;2023-12-20T09:15:53;178.43;;;93.93;;
76850;SDS011;65824;43.726;20.692;2023-12-20T09:18:20;175.65;;;92.95;;
76850;SDS011;65824;43.726;20.692;2023-12-20T09:20:45;175.55;;;88.60;;
76850;SDS011;65824;43.726;20.692;2023-12-20T09:23:12;165.90;;;90.47;;
76850;SDS011;65824;43.726;20.692;2023-12-20T09:25:38;157.02;;;90.90;;
76850;SDS011;65824;43.726;20.692;2023-12-20T09:28:03;169.52;;;90.25;;
76850;SDS011;65824;43.726;20.692;2023-12-20T09:30:29;163.43;;;90.78;;
76850;SDS011;65824;43.726;20.692;2023-12-20T09:32:54;172.95;;;94.00;;
76850;SDS011;65824;43.726;20.692;2023-12-20T09:35:20;150.65;;;85.28;;
76850;SDS011;65824;43.726;20.692;2023-12-20T09:37:46;152.88;;;87.88;;
76850;SDS011;65824;43.726;20.692;2023-12-20T09:40:14;148.77;;;82.68;;
76850;SDS011;65824;43.726;20.692;2023-12-20T09:45:41;139.52;;;76.65;;
76850;SDS011;65824;43.726;20.692;2023-12-20T09:48:07;128.38;;;75.63;;
76850;SDS011;65824;43.726;20.692;2023-12-20T09:50:36;131.57;;;72.35;;
76850;SDS011;65824;43.726;20.692;2023-12-20T09:53:01;121.75;;;69.38;;
76850;SDS011;65824;43.726;20.692;2023-12-20T09:55:29;121.97;;;66.32;;
76850;SDS011;65824;43.726;20.692;2023-12-20T09:57:55;119.35;;;67.97;;
76850;SDS011;65824;43.726;20.692;2023-12-20T10:00:21;113.13;;;63.10;;
76850;SDS011;65824;43.726;20.692;2023-12-20T10:02:50;111.35;;;63.25;;
76850;SDS011;65824;43.726;20.692;2023-12-20T10:05:21;132.18;;;74.97;;
76850;SDS011;65824;43.726;20.692;2023-12-20T10:07:52;105.63;;;63.30;;
76850;SDS011;65824;43.726;20.692;2023-12-20T10:10:17;106.20;;;61.38;;
76850;SDS011;65824;43.726;20.692;2023-12-20T10:15:29;109.10;;;57.13;;
76850;SDS011;65824;43.726;20.692;2023-12-20T10:18:01;105.40;;;60.70;;
76850;SDS011;65824;43.726;20.692;2023-12-20T10:20:27;117.57;;;63.13;;
76850;SDS011;65824;43.726;20.692;2023-12-20T10:22:58;109.57;;;61.15;;
76850;SDS011;65824;43.726;20.692;2023-12-20T10:25:25;112.80;;;64.85;;
76850;SDS011;65824;43.726;20.692;2023-12-20T10:28:08;127.50;;;67.28;;
76850;SDS011;65824;43.726;20.692;2023-12-20T10:30:36;125.25;;;68.57;;
76850;SDS011;65824;43.726;20.692;2023-12-20T10:33:02;131.07;;;71.85;;
76850;SDS011;65824;43.726;20.692;2023-12-20T10:35:28;127.18;;;68.72;;
76850;SDS011;65824;43.726;20.692;2023-12-20T10:37:55;117.63;;;67.75;;
76850;SDS011;65824;43.726;20.692;2023-12-20T10:40:23;92.93;;;52.22;;
76850;SDS011;65824;43.726;20.692;2023-12-20T10:42:52;84.68;;;47.13;;
76850;SDS011;65824;43.726;20.692;2023-12-20T10:45:18;104.93;;;57.33;;
76850;SDS011;65824;43.726;20.692;2023-12-20T10:47:45;134.13;;;71.47;;
76850;SDS011;65824;43.726;20.692;2023-12-20T10:50:11;117.28;;;67.72;;
76850;SDS011;65824;43.726;20.692;2023-12-20T10:52:37;124.00;;;67.53;;
76850;SDS011;65824;43.726;20.692;2023-12-20T10:55:03;124.90;;;71.25;;
76850;SDS011;65824;43.726;20.692;2023-12-20T10:57:29;150.98;;;79.00;;
76850;SDS011;65824;43.726;20.692;2023-12-20T10:59:55;128.30;;;68.28;;
76850;SDS011;65824;43.726;20.692;2023-12-20T11:02:25;120.95;;;66.47;;
76850;SDS011;65824;43.726;20.692;2023-12-20T11:05:10;112.35;;;61.20;;
76850;SDS011;65824;43.726;20.692;2023-12-20T11:07:54;93.75;;;53.50;;
76850;SDS011;65824;43.726;20.692;2023-12-20T11:10:31;100.57;;;53.63;;
76850;SDS011;65824;43.726;20.692;2023-12-20T11:15:44;79.97;;;43.97;;
76850;SDS011;65824;43.726;20.692;2023-12-20T11:18:10;65.80;;;36.47;;
76850;SDS011;65824;43.726;20.692;2023-12-20T11:20:40;61.47;;;35.45;;
76850;SDS011;65824;43.726;20.692;2023-12-20T11:23:06;59.58;;;35.70;;
76850;SDS011;65824;43.726;20.692;2023-12-20T11:28:31;76.82;;;42.30;;
76850;SDS011;65824;43.726;20.692;2023-12-20T11:30:57;70.20;;;39.10;;
76850;SDS011;65824;43.726;20.692;2023-12-20T11:33:26;64.80;;;37.28;;
76850;SDS011;65824;43.726;20.692;2023-12-20T11:36:01;73.10;;;39.17;;
76850;SDS011;65824;43.726;20.692;2023-12-20T11:38:37;66.72;;;35.95;;
76850;SDS011;65824;43.726;20.692;2023-12-20T11:41:04;67.38;;;35.63;;
76850;SDS011;65824;43.726;20.692;2023-12-20T11:43:32;62.17;;;33.38;;
76850;SDS011;65824;43.726;20.692;2023-12-20T11:48:31;64.82;;;37.03;;
76850;SDS011;65824;43.726;20.692;2023-12-20T11:50:57;73.30;;;37.38;;
76850;SDS011;65824;43.726;20.692;2023-12-20T11:53:23;70.18;;;39.08;;
76850;SDS011;65824;43.726;20.692;2023-12-20T11:55:49;72.60;;;39.72;;
76850;SDS011;65824;43.726;20.692;2023-12-20T11:58:14;68.28;;;37.45;;
76850;SDS011;65824;43.726;20.692;2023-12-20T12:00:41;72.18;;;40.17;;
76850;SDS011;65824;43.726;20.692;2023-12-20T12:03:08;71.40;;;40.13;;
76850;SDS011;65824;43.726;20.692;2023-12-20T12:05:34;71.97;;;39.67;;
76850;SDS011;65824;43.726;20.692;2023-12-20T12:07:59;73.07;;;42.20;;
76850;SDS011;65824;43.726;20.692;2023-12-20T12:10:25;76.53;;;40.15;;
76850;SDS011;65824;43.726;20.692;2023-12-20T12:12:51;72.97;;;41.85;;
76850;SDS011;65824;43.726;20.692;2023-12-20T12:15:17;75.07;;;42.42;;
76850;SDS011;65824;43.726;20.692;2023-12-20T12:17:42;80.65;;;42.75;;
76850;SDS011;65824;43.726;20.692;2023-12-20T12:20:09;69.55;;;39.72;;
76850;SDS011;65824;43.726;20.692;2023-12-20T12:22:35;79.20;;;41.17;;
76850;SDS011;65824;43.726;20.692;2023-12-20T12:25:11;82.20;;;44.05;;
76850;SDS011;65824;43.726;20.692;2023-12-20T12:27:39;84.28;;;44.92;;
76850;SDS011;65824;43.726;20.692;2023-12-20T12:30:06;86.03;;;46.22;;
76850;SDS011;65824;43.726;20.692;2023-12-20T12:32:35;98.82;;;52.28;;
76850;SDS011;65824;43.726;20.692;2023-12-20T12:35:04;98.53;;;50.95;;
76850;SDS011;65824;43.726;20.692;2023-12-20T12:37:31;92.82;;;50.92;;
76850;SDS011;65824;43.726;20.692;2023-12-20T12:39:59;98.00;;;51.80;;
76850;SDS011;65824;43.726;20.692;2023-12-20T12:42:24;101.32;;;52.22;;
76850;SDS011;65824;43.726;20.692;2023-12-20T12:44:53;109.20;;;58.67;;
76850;SDS011;65824;43.726;20.692;2023-12-20T12:47:20;114.88;;;61.92;;
76850;SDS011;65824;43.726;20.692;2023-12-20T12:49:45;103.60;;;57.50;;
76850;SDS011;65824;43.726;20.692;2023-12-20T12:52:11;108.60;;;58.70;;
76850;SDS011;65824;43.726;20.692;2023-12-20T12:54:36;89.88;;;51.30;;
76850;SDS011;65824;43.726;20.692;2023-12-20T12:57:02;90.55;;;49.60;;
76850;SDS011;65824;43.726;20.692;2023-12-20T12:59:27;90.57;;;48.10;;
76850;SDS011;65824;43.726;20.692;2023-12-20T13:01:53;84.22;;;48.40;;
76850;SDS011;65824;43.726;20.692;2023-12-20T13:04:22;83.57;;;46.88;;
76850;SDS011;65824;43.726;20.692;2023-12-20T13:06:47;84.63;;;45.85;;
76850;SDS011;65824;43.726;20.692;2023-12-20T13:09:12;81.10;;;44.60;;
76850;SDS011;65824;43.726;20.692;2023-12-20T13:11:38;80.35;;;44.03;;
76850;SDS011;65824;43.726;20.692;2023-12-20T13:14:04;87.55;;;43.25;;
76850;SDS011;65824;43.726;20.692;2023-12-20T13:16:29;79.25;;;43.42;;
76850;SDS011;65824;43.726;20.692;2023-12-20T13:18:55;78.20;;;41.58;;
76850;SDS011;65824;43.726;20.692;2023-12-20T13:21:21;101.28;;;46.80;;
76850;SDS011;65824;43.726;20.692;2023-12-20T13:23:46;87.40;;;43.88;;
76850;SDS011;65824;43.726;20.692;2023-12-20T13:26:12;69.97;;;38.00;;
76850;SDS011;65824;43.726;20.692;2023-12-20T13:28:38;71.15;;;37.90;;
76850;SDS011;65824;43.726;20.692;2023-12-20T13:31:03;73.10;;;38.28;;
76850;SDS011;65824;43.726;20.692;2023-12-20T13:33:29;64.50;;;36.20;;
76850;SDS011;65824;43.726;20.692;2023-12-20T13:35:54;66.05;;;36.75;;
76850;SDS011;65824;43.726;20.692;2023-12-20T13:38:21;69.15;;;37.05;;
76850;SDS011;65824;43.726;20.692;2023-12-20T13:40:47;68.68;;;36.80;;
76850;SDS011;65824;43.726;20.692;2023-12-20T13:43:13;81.05;;;43.50;;
76850;SDS011;65824;43.726;20.692;2023-12-20T13:45:39;83.38;;;44.17;;
76850;SDS011;65824;43.726;20.692;2023-12-20T13:48:05;80.53;;;45.65;;
76850;SDS011;65824;43.726;20.692;2023-12-20T13:50:30;75.38;;;42.47;;
76850;SDS011;65824;43.726;20.692;2023-12-20T13:52:56;75.35;;;39.65;;
76850;SDS011;65824;43.726;20.692;2023-12-20T13:55:21;68.72;;;36.85;;
76850;SDS011;65824;43.726;20.692;2023-12-20T13:57:50;63.53;;;34.95;;
76850;SDS011;65824;43.726;20.692;2023-12-20T14:00:16;65.60;;;35.22;;
76850;SDS011;65824;43.726;20.692;2023-12-20T14:02:42;67.28;;;34.08;;
76850;SDS011;65824;43.726;20.692;2023-12-20T14:05:08;66.63;;;33.95;;
76850;SDS011;65824;43.726;20.692;2023-12-20T14:07:35;61.08;;;34.17;;
76850;SDS011;65824;43.726;20.692;2023-12-20T14:10:01;73.18;;;37.03;;